createdAt,value
2022-12-09T00:01:44.621Z,12.00
2022-12-09T00:04:15.256Z,11.70
2022-12-09T00:06:43.323Z,12.50
2022-12-09T00:09:13.839Z,12.70
2022-12-09T00:11:42.768Z,12.40
2022-12-09T00:14:11.729Z,12.40
2022-12-09T00:16:40.063Z,12.00
2022-12-09T00:19:07.960Z,13.00
2022-12-09T00:21:35.971Z,13.10
2022-12-09T00:24:05.776Z,12.70
2022-12-09T00:26:34.165Z,12.60
2022-12-09T00:29:02.672Z,12.90
2022-12-09T00:31:32.685Z,13.50
2022-12-09T00:34:02.502Z,13.70
2022-12-09T00:36:31.355Z,13.40
2022-12-09T00:38:59.773Z,14.20
2022-12-09T00:41:28.490Z,15.00
2022-12-09T00:43:56.879Z,14.50
2022-12-09T00:46:24.570Z,14.50
2022-12-09T00:48:52.716Z,14.80
2022-12-09T00:51:22.004Z,14.40
2022-12-09T00:53:54.788Z,14.70
2022-12-09T00:56:24.265Z,14.60
2022-12-09T00:58:52.762Z,13.60
2022-12-09T01:01:21.172Z,15.10
2022-12-09T01:03:49.074Z,14.50
2022-12-09T01:06:19.242Z,15.50
2022-12-09T01:08:47.589Z,14.20
2022-12-09T01:11:17.429Z,15.20
2022-12-09T01:13:45.179Z,14.60
2022-12-09T01:16:14.481Z,14.60
2022-12-09T01:18:42.861Z,15.10
2022-12-09T01:21:10.690Z,14.20
2022-12-09T01:23:38.390Z,15.50
2022-12-09T01:26:07.363Z,15.40
2022-12-09T01:28:36.001Z,14.90
2022-12-09T01:31:07.050Z,14.10
2022-12-09T01:33:35.003Z,14.80
2022-12-09T01:36:10.196Z,14.20
2022-12-09T01:38:38.093Z,15.40
2022-12-09T01:41:06.090Z,14.10
2022-12-09T01:43:33.969Z,15.40
2022-12-09T01:46:02.467Z,14.30
2022-12-09T01:48:32.800Z,14.20
2022-12-09T01:51:01.876Z,14.50
2022-12-09T01:53:32.362Z,15.10
2022-12-09T01:56:02.084Z,14.30
2022-12-09T01:58:30.352Z,14.80
2022-12-09T02:00:58.517Z,14.40
2022-12-09T02:03:26.888Z,14.50
2022-12-09T02:05:55.166Z,13.60
2022-12-09T02:08:23.241Z,15.00
2022-12-09T02:11:00.262Z,13.50
2022-12-09T02:13:33.804Z,13.60
2022-12-09T02:16:03.324Z,13.80
2022-12-09T02:19:00.704Z,13.90
2022-12-09T02:21:34.548Z,13.70
2022-12-09T02:24:13.583Z,14.40
2022-12-09T02:26:46.887Z,13.90
2022-12-09T02:29:24.135Z,13.50
2022-12-09T02:31:57.978Z,13.00
2022-12-09T02:34:30.079Z,14.70
2022-12-09T02:37:13.899Z,13.70
2022-12-09T02:39:47.835Z,14.30
2022-12-09T02:42:19.278Z,13.70
2022-12-09T02:44:48.335Z,13.10
2022-12-09T02:47:18.466Z,14.10
2022-12-09T02:49:48.576Z,13.30
2022-12-09T02:52:17.239Z,13.50
2022-12-09T02:54:45.945Z,14.50
2022-12-09T02:57:16.170Z,13.90
2022-12-09T02:59:44.180Z,14.20
2022-12-09T03:02:15.048Z,13.80
2022-12-09T03:04:45.778Z,13.30
2022-12-09T03:07:26.194Z,14.80
2022-12-09T03:09:59.064Z,12.80
2022-12-09T03:12:28.901Z,13.60
2022-12-09T03:14:57.957Z,13.40
2022-12-09T03:17:30.974Z,13.40
2022-12-09T03:20:13.202Z,13.60
2022-12-09T03:22:43.405Z,13.20
2022-12-09T03:25:15.903Z,13.20
2022-12-09T03:27:47.472Z,13.30
2022-12-09T03:30:15.846Z,13.50
2022-12-09T03:32:44.471Z,13.60
2022-12-09T03:35:20.900Z,13.90
2022-12-09T03:37:50.166Z,14.80
2022-12-09T03:40:23.063Z,13.10
2022-12-09T03:43:11.561Z,14.30
2022-12-09T03:45:40.293Z,14.90
2022-12-09T03:48:09.142Z,15.20
2022-12-09T03:50:44.397Z,14.20
2022-12-09T03:53:34.209Z,15.40
2022-12-09T03:56:12.957Z,14.30
2022-12-09T03:58:42.931Z,14.40
2022-12-09T04:01:11.321Z,15.10
2022-12-09T04:03:39.686Z,14.80
2022-12-09T04:06:07.994Z,14.40
2022-12-09T04:08:35.795Z,16.10
2022-12-09T04:11:04.108Z,14.90
2022-12-09T04:13:31.986Z,14.10
2022-12-09T04:15:59.939Z,13.20
2022-12-09T04:18:28.095Z,13.30
2022-12-09T04:20:56.357Z,13.60
2022-12-09T04:23:24.054Z,13.60
2022-12-09T04:25:52.396Z,13.30
2022-12-09T04:28:20.622Z,13.40
2022-12-09T04:30:48.653Z,13.20
2022-12-09T04:33:17.059Z,14.40
2022-12-09T04:35:45.145Z,14.80
2022-12-09T04:38:13.113Z,15.60
2022-12-09T04:40:40.991Z,16.20
2022-12-09T04:43:08.747Z,16.00
2022-12-09T04:45:36.779Z,15.90
2022-12-09T04:48:05.280Z,16.80
2022-12-09T04:50:33.260Z,15.50
2022-12-09T04:53:01.752Z,15.20
2022-12-09T04:55:29.506Z,15.20
2022-12-09T04:57:57.163Z,14.50
2022-12-09T05:00:25.276Z,14.90
2022-12-09T05:02:53.393Z,14.60
2022-12-09T05:05:21.414Z,14.80
2022-12-09T05:07:49.671Z,14.30
2022-12-09T05:10:18.124Z,15.00
2022-12-09T05:12:45.931Z,14.00
2022-12-09T05:15:14.479Z,13.90
2022-12-09T05:17:42.982Z,13.50
2022-12-09T05:20:11.695Z,14.70
2022-12-09T05:22:40.625Z,14.40
2022-12-09T05:25:09.049Z,13.80
2022-12-09T05:27:37.194Z,13.70
2022-12-09T05:30:06.284Z,14.60
2022-12-09T05:32:34.951Z,15.00
2022-12-09T05:35:02.931Z,14.80
2022-12-09T05:37:31.305Z,14.30
2022-12-09T05:39:59.354Z,15.00
2022-12-09T05:42:27.533Z,14.70
2022-12-09T05:44:56.449Z,14.20
2022-12-09T05:47:24.879Z,14.80
2022-12-09T05:49:53.189Z,14.90
2022-12-09T05:52:21.107Z,15.40
2022-12-09T05:54:49.186Z,15.10
2022-12-09T05:57:20.612Z,14.40
2022-12-09T05:59:48.768Z,14.90
2022-12-09T06:02:17.420Z,15.10
2022-12-09T06:04:45.618Z,14.60
2022-12-09T06:07:14.036Z,16.00
2022-12-09T06:09:42.704Z,13.30
2022-12-09T06:12:11.240Z,15.40
2022-12-09T06:14:39.397Z,14.60
2022-12-09T06:17:07.613Z,15.60
2022-12-09T06:19:35.827Z,15.90
2022-12-09T06:22:04.153Z,15.50
2022-12-09T06:24:32.512Z,16.60
2022-12-09T06:27:00.779Z,15.20
2022-12-09T06:29:28.972Z,15.00
2022-12-09T06:31:56.945Z,15.10
2022-12-09T06:34:24.879Z,14.20
2022-12-09T06:36:53.167Z,15.30
2022-12-09T06:39:21.132Z,14.80
2022-12-09T06:41:49.132Z,15.30
2022-12-09T06:44:23.306Z,15.80
2022-12-09T06:46:52.231Z,16.00
2022-12-09T06:49:20.128Z,17.70
2022-12-09T06:51:48.011Z,16.80
2022-12-09T06:54:16.641Z,16.00
2022-12-09T06:56:44.780Z,17.60
2022-12-09T06:59:12.651Z,19.70
2022-12-09T07:01:40.918Z,20.90
2022-12-09T07:04:12.447Z,18.40
2022-12-09T07:06:41.736Z,17.00
2022-12-09T07:09:11.411Z,15.90
2022-12-09T07:11:42.595Z,16.00
2022-12-09T07:14:11.466Z,14.70
2022-12-09T07:16:39.920Z,15.80
2022-12-09T07:19:07.893Z,16.60
2022-12-09T07:21:36.598Z,21.10
2022-12-09T07:24:04.693Z,21.50
2022-12-09T07:26:33.166Z,20.10
2022-12-09T07:29:03.288Z,18.20
2022-12-09T07:31:32.653Z,17.50
2022-12-09T07:34:01.380Z,18.30
2022-12-09T07:36:30.992Z,17.50
2022-12-09T07:39:00.923Z,17.10
2022-12-09T07:41:29.616Z,16.70
2022-12-09T07:43:57.432Z,17.00
2022-12-09T07:46:27.518Z,18.30
2022-12-09T07:48:56.389Z,19.30
2022-12-09T07:51:25.851Z,17.70
2022-12-09T07:53:54.195Z,18.50
2022-12-09T07:56:23.452Z,17.30
2022-12-09T07:58:54.123Z,17.10
2022-12-09T08:01:23.684Z,16.30
2022-12-09T08:03:53.319Z,17.00
2022-12-09T08:06:23.640Z,19.00
2022-12-09T08:08:52.215Z,23.30
2022-12-09T08:11:25.346Z,25.00
2022-12-09T08:13:54.089Z,23.90
2022-12-09T08:16:22.818Z,25.10
2022-12-09T08:18:51.861Z,24.60
2022-12-09T08:21:24.844Z,23.50
2022-12-09T08:23:52.968Z,22.60
2022-12-09T08:26:22.287Z,21.00
2022-12-09T08:28:50.987Z,22.70
2022-12-09T08:31:21.120Z,22.10
2022-12-09T08:33:49.836Z,22.80
2022-12-09T08:36:23.012Z,20.60
2022-12-09T08:38:51.766Z,20.20
2022-12-09T08:41:21.460Z,20.40
2022-12-09T08:43:49.427Z,19.80
2022-12-09T08:46:17.306Z,19.90
2022-12-09T08:48:45.750Z,20.40
2022-12-09T08:51:13.917Z,19.70
2022-12-09T08:53:42.164Z,19.30
2022-12-09T08:56:14.595Z,19.10
2022-12-09T08:58:42.556Z,19.80
2022-12-09T09:01:18.742Z,18.70
2022-12-09T09:03:47.527Z,18.40
2022-12-09T09:06:17.194Z,18.80
2022-12-09T09:08:45.929Z,20.30
2022-12-09T09:11:17.070Z,19.60
2022-12-09T09:13:46.859Z,19.60
2022-12-09T09:16:16.688Z,20.10
2022-12-09T09:18:44.978Z,20.30
2022-12-09T09:21:14.671Z,21.20
2022-12-09T09:23:43.130Z,21.30
2022-12-09T09:26:12.444Z,22.40
2022-12-09T09:28:41.232Z,23.00
2022-12-09T09:31:11.042Z,21.60
2022-12-09T09:33:39.719Z,22.40
2022-12-09T09:36:10.679Z,23.40
2022-12-09T09:38:39.398Z,23.60
2022-12-09T09:41:19.672Z,22.60
2022-12-09T09:43:47.955Z,22.90
2022-12-09T09:46:21.825Z,21.90
2022-12-09T09:48:51.198Z,20.90
2022-12-09T09:51:21.230Z,24.20
2022-12-09T09:53:51.173Z,24.30
2022-12-09T09:56:31.972Z,23.70
2022-12-09T09:59:16.847Z,24.80
2022-12-09T10:01:51.366Z,23.30
2022-12-09T10:04:26.549Z,25.10
2022-12-09T10:06:55.087Z,25.40
2022-12-09T10:09:29.441Z,26.00
2022-12-09T10:12:03.811Z,25.10
2022-12-09T10:14:47.762Z,21.90
2022-12-09T10:17:26.088Z,21.40
2022-12-09T10:19:57.550Z,21.20
2022-12-09T10:22:28.895Z,20.90
2022-12-09T10:24:58.233Z,21.80
2022-12-09T10:27:31.365Z,22.10
2022-12-09T10:30:11.861Z,21.00
2022-12-09T10:32:40.441Z,21.00
2022-12-09T10:35:16.502Z,21.30
2022-12-09T10:37:45.340Z,21.70
2022-12-09T10:40:16.760Z,21.60
2022-12-09T10:43:04.688Z,22.00
2022-12-09T10:46:07.869Z,23.00
2022-12-09T10:48:22.567Z,23.20
2022-12-09T10:50:55.424Z,23.50
2022-12-09T10:53:23.960Z,23.70
2022-12-09T10:55:53.232Z,23.40
2022-12-09T10:58:23.227Z,25.90
2022-12-09T11:01:00.636Z,25.70
2022-12-09T11:03:31.560Z,26.90
2022-12-09T11:06:02.305Z,25.60
2022-12-09T11:08:31.377Z,26.50
2022-12-09T11:11:01.294Z,26.20
2022-12-09T11:13:37.809Z,26.80
2022-12-09T11:16:08.307Z,24.10
2022-12-09T11:18:48.050Z,22.30
2022-12-09T11:21:30.709Z,25.40
2022-12-09T11:24:03.192Z,23.60
2022-12-09T11:26:35.080Z,25.00
2022-12-09T11:29:13.523Z,25.40
2022-12-09T11:31:41.896Z,27.10
2022-12-09T11:34:37.853Z,27.10
2022-12-09T11:37:05.880Z,24.90
2022-12-09T11:39:34.448Z,25.10
2022-12-09T11:42:17.495Z,25.60
2022-12-09T11:44:49.431Z,25.10
2022-12-09T11:48:13.631Z,25.20
2022-12-09T11:50:26.016Z,26.70
2022-12-09T11:53:14.365Z,25.00
2022-12-09T11:55:46.837Z,24.90
2022-12-09T11:58:29.455Z,23.80
2022-12-09T12:01:01.841Z,24.00
2022-12-09T12:03:34.704Z,20.80
2022-12-09T12:06:04.156Z,20.90
2022-12-09T12:08:35.016Z,19.70
2022-12-09T12:11:10.471Z,20.00
2022-12-09T12:13:45.828Z,29.70
2022-12-09T12:16:27.520Z,20.30
2022-12-09T12:19:21.710Z,19.70
2022-12-09T12:21:55.886Z,15.00
2022-12-09T12:24:24.089Z,14.50
2022-12-09T12:27:18.372Z,15.60
2022-12-09T12:29:58.081Z,18.50
2022-12-09T12:32:30.793Z,17.80
2022-12-09T12:35:07.967Z,17.70
2022-12-09T12:38:08.793Z,13.80
2022-12-09T12:40:36.693Z,14.50
2022-12-09T12:43:29.551Z,14.90
2022-12-09T12:46:18.690Z,15.20
2022-12-09T12:49:05.933Z,19.10
2022-12-09T12:51:49.681Z,15.40
2022-12-09T12:54:27.200Z,14.90
2022-12-09T12:57:09.290Z,15.10
2022-12-09T12:59:44.348Z,16.80
2022-12-09T13:02:27.827Z,16.70
2022-12-09T13:05:03.555Z,15.70
2022-12-09T13:07:39.001Z,17.30
2022-12-09T13:10:25.826Z,17.30
2022-12-09T13:12:55.570Z,20.20
2022-12-09T13:15:27.077Z,17.10
2022-12-09T13:17:55.250Z,19.10
2022-12-09T13:20:43.453Z,18.80
2022-12-09T13:23:19.857Z,19.10
2022-12-09T13:25:59.243Z,18.60
2022-12-09T13:28:34.050Z,20.50
2022-12-09T13:31:03.448Z,19.70
2022-12-09T13:33:40.510Z,20.10
2022-12-09T13:38:40.764Z,18.60
2022-12-09T13:41:28.478Z,19.90
2022-12-09T13:43:58.844Z,20.80
2022-12-09T13:46:27.290Z,19.10
2022-12-09T13:48:55.509Z,19.10
2022-12-09T13:51:24.065Z,19.80
2022-12-09T13:53:58.145Z,19.10
2022-12-09T13:56:31.436Z,18.30
2022-12-09T13:59:18.001Z,19.40
2022-12-09T14:01:51.335Z,17.90
2022-12-09T14:04:19.458Z,18.30
2022-12-09T14:06:47.194Z,17.90
2022-12-09T14:09:26.898Z,18.50
2022-12-09T14:11:55.845Z,18.30
2022-12-09T14:14:23.672Z,18.10
2022-12-09T14:16:53.298Z,18.80
2022-12-09T14:19:24.320Z,19.60
2022-12-09T14:22:17.277Z,19.20
2022-12-09T14:24:46.122Z,19.20
2022-12-09T14:27:15.573Z,19.90
2022-12-09T14:29:44.861Z,20.30
2022-12-09T14:32:24.199Z,18.50
2022-12-09T14:35:10.694Z,21.00
2022-12-09T14:37:47.791Z,24.60
2022-12-09T14:40:15.678Z,22.80
2022-12-09T14:43:02.971Z,23.00
2022-12-09T14:45:30.692Z,24.50
2022-12-09T14:48:00.844Z,23.80
2022-12-09T14:50:29.949Z,23.40
2022-12-09T14:53:04.261Z,24.70
2022-12-09T14:55:34.921Z,24.10
2022-12-09T14:58:03.760Z,24.20
2022-12-09T15:00:34.610Z,24.20
2022-12-09T15:06:00.156Z,25.10
2022-12-09T15:08:31.388Z,29.70
2022-12-09T15:11:00.382Z,28.40
2022-12-09T15:13:28.862Z,27.30
2022-12-09T15:15:57.337Z,32.50
2022-12-09T15:18:25.929Z,29.20
2022-12-09T15:20:57.896Z,27.80
2022-12-09T15:23:36.398Z,27.00
2022-12-09T15:26:06.013Z,25.50
2022-12-09T15:28:35.820Z,35.50
2022-12-09T15:31:05.567Z,23.90
2022-12-09T15:33:42.805Z,21.60
2022-12-09T15:36:14.997Z,21.00
2022-12-09T15:38:49.500Z,22.80
2022-12-09T15:41:36.828Z,22.20
2022-12-09T15:44:10.087Z,22.10
2022-12-09T15:46:39.453Z,22.70
2022-12-09T15:49:11.068Z,23.30
2022-12-09T15:51:40.784Z,22.90
2022-12-09T15:54:11.074Z,23.90
2022-12-09T15:56:44.293Z,25.80
2022-12-09T15:59:14.920Z,25.50
2022-12-09T16:01:48.049Z,23.90
2022-12-09T16:04:18.546Z,22.30
2022-12-09T16:06:47.344Z,23.60
2022-12-09T16:09:17.868Z,25.00
2022-12-09T16:11:53.516Z,25.90
2022-12-09T16:14:22.989Z,25.40
2022-12-09T16:17:01.832Z,25.60
2022-12-09T16:19:31.712Z,27.80
2022-12-09T16:22:05.666Z,26.90
2022-12-09T16:25:05.707Z,31.80
2022-12-09T16:27:27.088Z,30.70
2022-12-09T16:29:56.391Z,28.00
2022-12-09T16:32:24.661Z,28.40
2022-12-09T16:34:54.535Z,27.60
2022-12-09T16:37:22.541Z,29.00
2022-12-09T16:39:50.818Z,29.10
2022-12-09T16:42:23.083Z,28.40
2022-12-09T16:44:51.165Z,28.50
2022-12-09T16:47:22.556Z,28.50
2022-12-09T16:49:50.763Z,29.10
2022-12-09T16:52:22.968Z,29.60
2022-12-09T16:54:54.194Z,28.60
2022-12-09T16:57:22.062Z,29.50
2022-12-09T16:59:51.174Z,29.10
2022-12-09T17:02:28.875Z,29.70
2022-12-09T17:04:57.953Z,30.20
2022-12-09T17:07:26.728Z,26.30
2022-12-09T17:09:55.819Z,25.20
2022-12-09T17:12:24.146Z,22.90
2022-12-09T17:14:55.754Z,21.60
2022-12-09T17:17:23.909Z,24.80
2022-12-09T17:19:55.191Z,21.90
2022-12-09T17:22:23.137Z,23.90
2022-12-09T17:24:51.515Z,24.00
2022-12-09T17:27:19.478Z,23.90
2022-12-09T17:29:49.072Z,23.20
2022-12-09T17:32:17.458Z,26.40
2022-12-09T17:34:45.336Z,21.30
2022-12-09T17:37:13.199Z,23.30
2022-12-09T17:39:41.366Z,20.10
2022-12-09T17:42:09.344Z,22.90
2022-12-09T17:44:37.209Z,22.30
2022-12-09T17:47:05.079Z,23.40
2022-12-09T17:49:33.139Z,21.70
2022-12-09T17:52:01.309Z,23.80
2022-12-09T17:54:29.850Z,24.10
2022-12-09T17:56:57.960Z,24.70
2022-12-09T17:59:26.757Z,21.10
2022-12-09T18:01:54.980Z,22.10
2022-12-09T18:04:23.100Z,21.90
2022-12-09T18:06:52.100Z,22.00
2022-12-09T18:09:23.095Z,20.70
2022-12-09T18:11:51.928Z,20.90
2022-12-09T18:14:20.209Z,19.50
2022-12-09T18:16:49.480Z,21.80
2022-12-09T18:19:18.390Z,22.60
2022-12-09T18:21:46.763Z,22.20
2022-12-09T18:24:15.860Z,22.20
2022-12-09T18:26:45.260Z,21.60
2022-12-09T18:29:13.746Z,18.90
2022-12-09T18:31:46.387Z,20.70
2022-12-09T18:34:15.676Z,23.20
2022-12-09T18:36:43.783Z,22.40
2022-12-09T18:39:12.568Z,21.50
2022-12-09T18:41:41.291Z,20.50
2022-12-09T18:44:10.336Z,21.20
2022-12-09T18:46:39.809Z,76.60
2022-12-09T18:49:10.274Z,28.30
2022-12-09T18:51:39.267Z,23.90
2022-12-09T18:54:07.444Z,24.00
2022-12-09T18:56:36.112Z,22.60
2022-12-09T18:59:06.963Z,22.70
2022-12-09T19:01:39.892Z,20.60
2022-12-09T19:04:11.908Z,21.90
2022-12-09T19:06:40.700Z,21.80
2022-12-09T19:09:10.830Z,21.70
2022-12-09T19:11:39.912Z,23.40
2022-12-09T19:14:08.731Z,22.60
2022-12-09T19:16:39.496Z,21.40
2022-12-09T19:19:10.701Z,23.30
2022-12-09T19:21:40.129Z,24.00
2022-12-09T19:24:13.589Z,23.10
2022-12-09T19:26:43.303Z,22.40
2022-12-09T19:29:12.495Z,22.50
2022-12-09T19:31:45.478Z,24.40
2022-12-09T19:34:17.842Z,23.50
2022-12-09T19:36:46.425Z,25.60
2022-12-09T19:39:15.227Z,25.40
2022-12-09T19:41:46.106Z,25.10
2022-12-09T19:44:31.012Z,25.60
2022-12-09T19:47:05.589Z,25.20
2022-12-09T19:49:35.835Z,19.90
2022-12-09T19:52:05.566Z,24.70
2022-12-09T19:54:35.083Z,26.00
2022-12-09T19:57:03.550Z,25.90
2022-12-09T19:59:32.137Z,24.80
2022-12-09T20:02:00.548Z,26.00
2022-12-09T20:07:19.568Z,22.80
2022-12-09T20:09:49.160Z,25.20
2022-12-09T20:12:17.480Z,25.10
2022-12-09T20:14:45.952Z,22.20
2022-12-09T20:17:14.147Z,23.70
2022-12-09T20:19:43.943Z,23.40
2022-12-09T20:22:12.407Z,24.10
2022-12-09T20:24:43.743Z,24.60
2022-12-09T20:27:12.502Z,24.60
2022-12-09T20:29:40.948Z,25.90
2022-12-09T20:32:09.655Z,36.50
2022-12-09T20:34:40.427Z,26.20
2022-12-09T20:37:08.957Z,25.30
2022-12-09T20:39:37.927Z,23.40
2022-12-09T20:42:06.923Z,25.80
2022-12-09T20:44:35.394Z,25.90
2022-12-09T20:47:03.767Z,24.40
2022-12-09T20:49:34.387Z,24.20
2022-12-09T20:52:02.671Z,25.20
2022-12-09T20:54:30.844Z,22.80
2022-12-09T20:56:58.915Z,25.20
2022-12-09T20:59:26.876Z,23.90
2022-12-09T21:01:56.292Z,26.40
2022-12-09T21:04:26.904Z,23.40
2022-12-09T21:06:54.880Z,24.40
2022-12-09T21:09:27.670Z,25.90
2022-12-09T21:11:56.350Z,22.00
2022-12-09T21:14:31.003Z,24.30
2022-12-09T21:17:00.880Z,21.80
2022-12-09T21:19:30.595Z,22.00
2022-12-09T21:21:58.788Z,21.60
2022-12-09T21:24:27.045Z,20.10
2022-12-09T21:27:00.859Z,19.60
2022-12-09T21:29:32.183Z,21.10
2022-12-09T21:32:01.590Z,24.90
2022-12-09T21:34:29.987Z,22.20
2022-12-09T21:36:58.007Z,20.70
2022-12-09T21:39:28.236Z,22.50
2022-12-09T21:41:56.165Z,21.50
2022-12-09T21:44:25.726Z,20.60
2022-12-09T21:46:54.217Z,19.80
2022-12-09T21:49:24.609Z,20.40
2022-12-09T21:51:52.716Z,19.70
2022-12-09T21:54:21.496Z,19.70
2022-12-09T21:56:49.470Z,20.70
2022-12-09T21:59:17.843Z,16.10
2022-12-09T22:01:45.653Z,22.60
2022-12-09T22:04:16.161Z,24.60
2022-12-09T22:06:45.428Z,23.50
2022-12-09T22:09:13.922Z,21.60
2022-12-09T22:11:45.854Z,23.10
2022-12-09T22:14:14.153Z,23.30
2022-12-09T22:16:43.176Z,22.80
2022-12-09T22:19:15.812Z,24.00
2022-12-09T22:21:45.732Z,25.90
2022-12-09T22:24:14.440Z,28.30
2022-12-09T22:26:45.771Z,28.30
2022-12-09T22:29:15.785Z,28.20
2022-12-09T22:31:44.679Z,29.40
2022-12-09T22:34:17.973Z,28.90
2022-12-09T22:36:46.687Z,28.80
2022-12-09T22:39:16.142Z,31.00
2022-12-09T22:41:46.160Z,29.80
2022-12-09T22:44:15.380Z,28.60
2022-12-09T22:46:43.921Z,23.70
2022-12-09T22:49:13.679Z,27.40
2022-12-09T22:51:42.145Z,26.20
2022-12-09T22:54:11.238Z,25.00
2022-12-09T22:56:40.399Z,24.50
2022-12-09T22:59:08.607Z,23.50
2022-12-09T23:01:37.582Z,23.10
2022-12-09T23:04:06.936Z,24.40
2022-12-09T23:06:38.854Z,24.20
2022-12-09T23:09:07.826Z,25.00
2022-12-09T23:11:36.127Z,24.40
2022-12-09T23:14:04.400Z,23.60
2022-12-09T23:16:32.295Z,22.70
2022-12-09T23:19:00.239Z,22.90
2022-12-09T23:21:30.039Z,24.30
2022-12-09T23:24:00.824Z,21.20
2022-12-09T23:26:29.481Z,22.30
2022-12-09T23:28:58.476Z,17.60
2022-12-09T23:31:27.697Z,22.90
2022-12-09T23:33:55.827Z,21.80
2022-12-09T23:36:25.222Z,22.00
2022-12-09T23:38:53.720Z,23.00
2022-12-09T23:41:22.143Z,21.40
2022-12-09T23:43:50.110Z,19.60
2022-12-09T23:46:19.312Z,20.40
2022-12-09T23:48:48.545Z,20.10
2022-12-09T23:51:21.464Z,20.50
2022-12-09T23:53:50.427Z,20.40
2022-12-09T23:56:20.033Z,20.40
2022-12-09T23:58:48.421Z,19.90
